Wetterdaten: Woche 24.08.09 - 30.08.09 (KW35)
Datum Zeit Temperatur Luftfeuchte Luftdruck Niederschlag Wind Richtung Sonnenschein Solar Taupunkt Windchill Windben
24.08.2009 00:00 16.4 C 80 % 1013.9 hPa 0.0 l/m 0.4 km/h (0 Bft) S-SO 0.00 h 0 W/m 12.8 C 16.4 C 1.1 km/h (1 Bft)
24.08.2009 01:00 15.5 C 83 % 1013.5 hPa 0.0 l/m 0.7 km/h (0 Bft) S-SO 0.00 h 0 W/m 12.7 C 15.5 C 2.0 km/h (1 Bft)
24.08.2009 02:00 14.7 C 86 % 1013.3 hPa 0.0 l/m 0.2 km/h (0 Bft) SO 0.00 h 0 W/m 12.4 C 14.7 C 0.9 km/h (0 Bft)
24.08.2009 03:00 14.0 C 88 % 1012.9 hPa 0.0 l/m 0.3 km/h (0 Bft) SO 0.00 h 0 W/m 12.1 C 14.0 C 1.1 km/h (0 Bft)
24.08.2009 04:00 13.3 C 90 % 1012.9 hPa 0.0 l/m 0.3 km/h (0 Bft) SO 0.00 h 0 W/m 11.8 C 13.3 C 1.0 km/h (0 Bft)
24.08.2009 05:00 12.7 C 92 % 1012.9 hPa 0.0 l/m 0.2 km/h (0 Bft) SO 0.00 h 0 W/m 11.4 C 12.7 C 0.7 km/h (0 Bft)
24.08.2009 06:00 12.3 C 93 % 1013.0 hPa 0.0 l/m 0.1 km/h (0 Bft) SO 0.03 h 11 W/m 11.2 C 12.3 C 0.7 km/h (0 Bft)
24.08.2009 07:00 12.3 C 95 % 1013.1 hPa 0.0 l/m 0.0 km/h (0 Bft) N 0.02 h 36 W/m 11.5 C 12.3 C 0.1 km/h (0 Bft)
24.08.2009 08:00 14.3 C 95 % 1012.9 hPa 0.0 l/m 0.5 km/h (0 Bft) NW 1.00 h 207 W/m 13.6 C 14.3 C 1.4 km/h (1 Bft)
24.08.2009 09:00 17.7 C 80 % 1012.4 hPa 0.0 l/m 1.0 km/h (0 Bft) NW 1.00 h 360 W/m 14.1 C 17.7 C 2.9 km/h (1 Bft)
24.08.2009 10:00 20.3 C 72 % 1011.9 hPa 0.0 l/m 1.8 km/h (1 Bft) NW 1.00 h 511 W/m 15.0 C 20.3 C 3.6 km/h (1 Bft)
24.08.2009 11:00 22.7 C 68 % 1011.4 hPa 0.0 l/m 0.8 km/h (0 Bft) S-SO 1.00 h 631 W/m 16.4 C 22.7 C 2.6 km/h (1 Bft)
24.08.2009 12:00 24.8 C 64 % 1010.7 hPa 0.0 l/m 2.1 km/h (1 Bft) NW 1.00 h 709 W/m 17.4 C 24.8 C 4.2 km/h (1 Bft)
24.08.2009 13:00 27.2 C 57 % 1010.0 hPa 0.0 l/m 2.7 km/h (1 Bft) S-SO 1.00 h 746 W/m 18.0 C 27.2 C 5.9 km/h (2 Bft)
24.08.2009 14:00 29.0 C 52 % 1009.4 hPa 0.0 l/m 2.7 km/h (1 Bft) SO 1.00 h 726 W/m 18.1 C 29.0 C 6.1 km/h (2 Bft)
24.08.2009 15:00 30.0 C 49 % 1008.8 hPa 0.0 l/m 3.0 km/h (1 Bft) S-SO 1.00 h 648 W/m 18.0 C 30.0 C 5.8 km/h (2 Bft)
24.08.2009 16:00 30.6 C 45 % 1008.4 hPa 0.0 l/m 2.9 km/h (1 Bft) S-SO 1.00 h 538 W/m 17.4 C 30.6 C 5.6 km/h (1 Bft)
24.08.2009 17:00 30.8 C 44 % 1008.0 hPa 0.0 l/m 2.0 km/h (1 Bft) W-SW 1.00 h 378 W/m 17.0 C 30.8 C 4.1 km/h (1 Bft)
24.08.2009 18:00 29.9 C 46 % 1007.7 hPa 0.0 l/m 0.8 km/h (0 Bft) S-SO 0.98 h 223 W/m 17.0 C 29.9 C 2.5 km/h (1 Bft)
24.08.2009 19:00 28.7 C 54 % 1007.5 hPa 0.0 l/m 4.4 km/h (1 Bft) O-SO 0.50 h 74 W/m 18.5 C 28.7 C 5.9 km/h (2 Bft)
24.08.2009 20:00 25.8 C 67 % 1007.5 hPa 0.0 l/m 3.3 km/h (1 Bft) O-SO 0.00 h 8 W/m 19.3 C 25.8 C 4.5 km/h (1 Bft)
24.08.2009 21:00 23.3 C 75 % 1007.9 hPa 0.0 l/m 2.7 km/h (1 Bft) O-SO 0.00 h 0 W/m 18.6 C 23.3 C 4.1 km/h (1 Bft)
24.08.2009 22:00 21.8 C 79 % 1008.0 hPa 0.0 l/m 1.5 km/h (1 Bft) O-SO 0.00 h 0 W/m 18.0 C 21.8 C 2.4 km/h (1 Bft)
24.08.2009 23:00 20.6 C 84 % 1007.9 hPa 0.0 l/m 1.1 km/h (1 Bft) O-SO 0.00 h 0 W/m 17.7 C 20.6 C 2.0 km/h (1 Bft)
25.08.2009 00:00 20.2 C 85 % 1008.1 hPa 0.0 l/m 0.6 km/h (0 Bft) O-SO 0.00 h 0 W/m 17.7 C 20.2 C 1.4 km/h (1 Bft)
25.08.2009 01:00 20.0 C 87 % 1008.9 hPa 0.0 l/m 2.5 km/h (1 Bft) O-SO 0.00 h 0 W/m 17.8 C 20.0 C 4.8 km/h (1 Bft)
25.08.2009 02:00 20.4 C 79 % 1009.3 hPa 0.0 l/m 4.5 km/h (1 Bft) W-NW 0.00 h 0 W/m 16.7 C 20.4 C 8.3 km/h (2 Bft)
25.08.2009 03:00 21.5 C 66 % 1009.6 hPa 0.0 l/m 2.4 km/h (1 Bft) S-SO 0.00 h 0 W/m 14.9 C 21.5 C 5.8 km/h (2 Bft)
25.08.2009 04:00 20.1 C 78 % 1010.5 hPa 0.0 l/m 5.4 km/h (1 Bft) S-SO 0.00 h 0 W/m 16.2 C 20.1 C 11.2 km/h (2 Bft)
25.08.2009 05:00 19.2 C 83 % 1010.6 hPa 2.2 l/m 3.2 km/h (1 Bft) S-SO 0.00 h 0 W/m 16.3 C 19.2 C 6.6 km/h (2 Bft)
25.08.2009 06:00 18.3 C 90 % 1011.2 hPa 2.0 l/m 0.7 km/h (0 Bft) SO 0.00 h 7 W/m 16.5 C 18.3 C 1.9 km/h (1 Bft)
25.08.2009 07:00 18.0 C 93 % 1012.0 hPa 0.0 l/m 5.5 km/h (1 Bft) SO 0.00 h 38 W/m 16.9 C 18.0 C 8.5 km/h (2 Bft)
25.08.2009 08:00 18.8 C 93 % 1011.7 hPa 0.0 l/m 2.3 km/h (1 Bft) S-SO 0.22 h 136 W/m 17.6 C 18.8 C 4.4 km/h (1 Bft)
25.08.2009 09:00 19.9 C 90 % 1011.6 hPa 0.0 l/m 0.4 km/h (0 Bft) SO 0.03 h 184 W/m 18.3 C 19.9 C 1.1 km/h (1 Bft)
25.08.2009 10:00 21.2 C 86 % 1011.9 hPa 0.0 l/m 0.3 km/h (0 Bft) SO 0.82 h 462 W/m 18.8 C 21.2 C 1.7 km/h (1 Bft)
25.08.2009 11:00 23.3 C 74 % 1011.8 hPa 0.0 l/m 0.8 km/h (0 Bft) SO 1.00 h 655 W/m 18.3 C 23.3 C 2.6 km/h (1 Bft)
25.08.2009 12:00 24.5 C 67 % 1011.5 hPa 0.0 l/m 2.1 km/h (1 Bft) S-SO 1.00 h 711 W/m 17.9 C 24.5 C 4.3 km/h (1 Bft)
25.08.2009 13:00 25.9 C 61 % 1011.0 hPa 0.0 l/m 1.7 km/h (1 Bft) W-SW 0.88 h 684 W/m 17.8 C 25.9 C 4.2 km/h (1 Bft)
25.08.2009 14:00 26.5 C 57 % 1010.7 hPa 0.0 l/m 3.6 km/h (1 Bft) S-SO 0.75 h 590 W/m 17.1 C 26.5 C 6.9 km/h (2 Bft)
25.08.2009 15:00 27.4 C 56 % 1010.4 hPa 0.0 l/m 3.6 km/h (1 Bft) W 0.75 h 538 W/m 17.7 C 27.4 C 7.0 km/h (2 Bft)
25.08.2009 16:00 22.7 C 73 % 1011.8 hPa 1.2 l/m 9.0 km/h (2 Bft) W 0.00 h 60 W/m 17.5 C 22.7 C 15.1 km/h (3 Bft)
25.08.2009 17:00 19.6 C 94 % 1012.7 hPa 0.0 l/m 3.0 km/h (1 Bft) W-NW 0.00 h 93 W/m 18.6 C 19.6 C 5.7 km/h (1 Bft)
25.08.2009 18:00 19.6 C 95 % 1013.1 hPa 0.0 l/m 2.5 km/h (1 Bft) W 0.00 h 45 W/m 18.8 C 19.6 C 4.9 km/h (1 Bft)
25.08.2009 19:00 19.6 C 93 % 1013.6 hPa 0.2 l/m 0.7 km/h (0 Bft) S-SO 0.00 h 25 W/m 18.5 C 19.6 C 2.3 km/h (1 Bft)
25.08.2009 20:00 19.4 C 92 % 1014.1 hPa 0.0 l/m 0.3 km/h (0 Bft) S 0.00 h 11 W/m 18.1 C 19.4 C 1.1 km/h (1 Bft)
25.08.2009 21:00 18.8 C 92 % 1014.5 hPa 0.0 l/m 0.1 km/h (0 Bft) S 0.00 h 0 W/m 17.5 C 18.8 C 0.3 km/h (0 Bft)
25.08.2009 22:00 18.2 C 93 % 1014.5 hPa 0.0 l/m 0.1 km/h (0 Bft) S 0.00 h 0 W/m 17.1 C 18.2 C 0.4 km/h (0 Bft)
25.08.2009 23:00 17.7 C 95 % 1014.5 hPa 0.0 l/m 2.9 km/h (1 Bft) O-SO 0.00 h 0 W/m 16.9 C 17.7 C 4.4 km/h (1 Bft)
26.08.2009 00:00 17.4 C 96 % 1014.6 hPa 0.0 l/m 0.5 km/h (0 Bft) O-SO 0.00 h 0 W/m 16.8 C 17.4 C 1.2 km/h (1 Bft)
26.08.2009 01:00 17.4 C 97 % 1015.0 hPa 0.0 l/m 0.0 km/h (0 Bft) O-SO 0.00 h 0 W/m 16.9 C 17.4 C 0.3 km/h (0 Bft)
26.08.2009 02:00 17.5 C 97 % 1015.2 hPa 0.2 l/m 0.3 km/h (0 Bft) O-SO 0.00 h 0 W/m 17.0 C 17.5 C 0.9 km/h (0 Bft)
26.08.2009 03:00 17.6 C 98 % 1015.0 hPa 0.0 l/m 2.0 km/h (1 Bft) O-SO 0.00 h 0 W/m 17.2 C 17.6 C 3.9 km/h (1 Bft)
26.08.2009 04:00 17.3 C 98 % 1015.0 hPa 0.0 l/m 0.2 km/h (0 Bft) O-SO 0.00 h 0 W/m 17.0 C 17.3 C 1.2 km/h (1 Bft)
26.08.2009 05:00 17.5 C 98 % 1015.1 hPa 0.0 l/m 0.4 km/h (0 Bft) O-SO 0.00 h 0 W/m 17.2 C 17.5 C 1.4 km/h (1 Bft)
26.08.2009 06:00 17.5 C 98 % 1015.1 hPa 0.0 l/m 0.4 km/h (0 Bft) O-SO 0.00 h 6 W/m 17.1 C 17.5 C 1.4 km/h (1 Bft)
26.08.2009 07:00 17.6 C 98 % 1015.1 hPa 0.0 l/m 0.0 km/h (0 Bft) N 0.00 h 31 W/m 17.3 C 17.6 C 0.2 km/h (0 Bft)
26.08.2009 08:00 18.0 C 99 % 1015.4 hPa 0.0 l/m 0.0 km/h (0 Bft) N 0.00 h 42 W/m 17.9 C 18.0 C 0.0 km/h (0 Bft)
26.08.2009 09:00 18.4 C 99 % 1015.7 hPa 0.0 l/m 0.1 km/h (0 Bft) S-SW 0.00 h 60 W/m 18.2 C 18.4 C 0.6 km/h (0 Bft)
26.08.2009 10:00 18.9 C 98 % 1016.1 hPa 0.0 l/m 1.6 km/h (1 Bft) W-SW 0.00 h 131 W/m 18.5 C 18.9 C 3.4 km/h (1 Bft)
26.08.2009 11:00 19.6 C 98 % 1016.4 hPa 0.0 l/m 0.9 km/h (0 Bft) W-SW 0.00 h 228 W/m 19.2 C 19.6 C 2.5 km/h (1 Bft)
26.08.2009 12:00 20.5 C 92 % 1016.4 hPa 0.0 l/m 0.7 km/h (0 Bft) W-SW 0.00 h 232 W/m 19.2 C 20.5 C 2.1 km/h (1 Bft)
26.08.2009 13:00 21.4 C 83 % 1016.3 hPa 0.0 l/m 0.9 km/h (0 Bft) W-SW 0.18 h 388 W/m 18.4 C 21.4 C 2.7 km/h (1 Bft)
26.08.2009 14:00 23.2 C 75 % 1015.6 hPa 0.2 l/m 1.8 km/h (1 Bft) O-SO 0.88 h 663 W/m 18.5 C 23.2 C 4.3 km/h (1 Bft)
26.08.2009 15:00 24.1 C 71 % 1015.2 hPa 0.0 l/m 1.9 km/h (1 Bft) O-SO 0.85 h 497 W/m 18.4 C 24.1 C 4.3 km/h (1 Bft)
26.08.2009 16:00 24.2 C 72 % 1014.9 hPa 0.0 l/m 0.7 km/h (0 Bft) W-SW 0.15 h 267 W/m 18.9 C 24.2 C 2.4 km/h (1 Bft)
26.08.2009 17:00 23.9 C 73 % 1014.7 hPa 0.0 l/m 0.0 km/h (0 Bft) W-SW 0.00 h 147 W/m 18.7 C 23.9 C 0.6 km/h (0 Bft)
26.08.2009 18:00 24.2 C 71 % 1014.5 hPa 0.0 l/m 0.2 km/h (0 Bft) SO 0.33 h 152 W/m 18.6 C 24.2 C 1.3 km/h (1 Bft)
26.08.2009 19:00 24.0 C 73 % 1014.8 hPa 0.0 l/m 1.1 km/h (1 Bft) O-SO 0.10 h 40 W/m 18.9 C 24.0 C 2.6 km/h (1 Bft)
26.08.2009 20:00 22.4 C 79 % 1015.2 hPa 0.0 l/m 1.1 km/h (1 Bft) O-SO 0.00 h 8 W/m 18.6 C 22.4 C 1.7 km/h (1 Bft)
26.08.2009 21:00 20.5 C 86 % 1015.7 hPa 0.0 l/m 2.0 km/h (1 Bft) O-SO 0.00 h 0 W/m 18.0 C 20.5 C 3.3 km/h (1 Bft)
26.08.2009 22:00 19.6 C 89 % 1016.3 hPa 0.0 l/m 0.8 km/h (0 Bft) O-SO 0.00 h 0 W/m 17.8 C 19.6 C 1.9 km/h (1 Bft)
26.08.2009 23:00 18.9 C 91 % 1016.5 hPa 0.0 l/m 0.8 km/h (0 Bft) O-SO 0.00 h 0 W/m 17.4 C 18.9 C 1.5 km/h (1 Bft)
27.08.2009 00:00 18.2 C 93 % 1016.6 hPa 0.0 l/m 0.7 km/h (0 Bft) O-SO 0.00 h 0 W/m 17.0 C 18.2 C 1.7 km/h (1 Bft)
27.08.2009 01:00 17.7 C 95 % 1016.7 hPa 0.0 l/m 0.8 km/h (0 Bft) O-SO 0.00 h 0 W/m 16.8 C 17.7 C 1.8 km/h (1 Bft)
27.08.2009 02:00 17.2 C 96 % 1016.9 hPa 0.0 l/m 1.9 km/h (1 Bft) O-SO 0.00 h 0 W/m 16.5 C 17.2 C 3.0 km/h (1 Bft)
27.08.2009 03:00 17.1 C 97 % 1017.1 hPa 0.0 l/m 0.1 km/h (0 Bft) O-SO 0.00 h 0 W/m 16.6 C 17.1 C 0.5 km/h (0 Bft)
27.08.2009 04:00 17.0 C 97 % 1017.4 hPa 0.0 l/m 0.1 km/h (0 Bft) O-SO 0.00 h 0 W/m 16.6 C 17.0 C 0.5 km/h (0 Bft)
27.08.2009 05:00 16.9 C 98 % 1017.7 hPa 0.0 l/m 0.0 km/h (0 Bft) O-SO 0.00 h 0 W/m 16.6 C 16.9 C 0.2 km/h (0 Bft)
27.08.2009 06:00 17.0 C 98 % 1017.9 hPa 0.0 l/m 0.0 km/h (0 Bft) N 0.00 h 6 W/m 16.7 C 17.0 C 0.3 km/h (0 Bft)
27.08.2009 07:00 17.2 C 99 % 1018.4 hPa 0.0 l/m 0.0 km/h (0 Bft) N 0.00 h 27 W/m 17.0 C 17.2 C 0.2 km/h (0 Bft)
27.08.2009 08:00 17.5 C 99 % 1019.0 hPa 0.0 l/m 0.0 km/h (0 Bft) N 0.00 h 64 W/m 17.4 C 17.5 C 0.3 km/h (0 Bft)
27.08.2009 09:00 18.2 C 99 % 1019.4 hPa 0.0 l/m 0.3 km/h (0 Bft) O-SO 0.22 h 191 W/m 18.1 C 18.2 C 1.2 km/h (1 Bft)
27.08.2009 10:00 21.3 C 86 % 1019.3 hPa 0.0 l/m 0.8 km/h (0 Bft) N-NW 1.00 h 503 W/m 18.9 C 21.3 C 2.3 km/h (1 Bft)
27.08.2009 11:00 24.0 C 75 % 1018.8 hPa 0.0 l/m 0.9 km/h (0 Bft) N-NW 1.00 h 612 W/m 19.3 C 24.0 C 2.5 km/h (1 Bft)
27.08.2009 12:00 25.9 C 62 % 1018.0 hPa 0.0 l/m 1.3 km/h (1 Bft) NW 1.00 h 696 W/m 18.0 C 25.9 C 3.2 km/h (1 Bft)
27.08.2009 13:00 26.8 C 59 % 1017.4 hPa 0.0 l/m 2.1 km/h (1 Bft) O-SO 1.00 h 716 W/m 17.9 C 26.8 C 4.5 km/h (1 Bft)
27.08.2009 14:00 28.2 C 55 % 1016.5 hPa 0.0 l/m 4.2 km/h (1 Bft) N-NW 1.00 h 706 W/m 18.3 C 28.2 C 6.9 km/h (2 Bft)
27.08.2009 15:00 28.8 C 53 % 1015.9 hPa 0.0 l/m 3.9 km/h (1 Bft) N-NW 0.97 h 606 W/m 18.1 C 28.8 C 6.5 km/h (2 Bft)
27.08.2009 16:00 29.3 C 51 % 1015.4 hPa 0.0 l/m 4.5 km/h (1 Bft) N-NW 1.00 h 504 W/m 18.2 C 29.3 C 7.2 km/h (2 Bft)
27.08.2009 17:00 28.9 C 51 % 1014.9 hPa 0.0 l/m 3.4 km/h (1 Bft) N-NW 1.00 h 367 W/m 17.6 C 28.9 C 5.7 km/h (1 Bft)
27.08.2009 18:00 28.6 C 53 % 1014.5 hPa 0.0 l/m 3.0 km/h (1 Bft) W 0.75 h 189 W/m 17.9 C 28.6 C 5.3 km/h (1 Bft)
27.08.2009 19:00 27.4 C 59 % 1014.5 hPa 0.0 l/m 1.3 km/h (1 Bft) W 0.22 h 59 W/m 18.6 C 27.4 C 2.7 km/h (1 Bft)
27.08.2009 20:00 25.0 C 70 % 1015.0 hPa 0.0 l/m 3.0 km/h (1 Bft) O-SO 0.03 h 9 W/m 19.0 C 25.0 C 4.6 km/h (1 Bft)
27.08.2009 21:00 22.3 C 79 % 1015.6 hPa 0.0 l/m 3.6 km/h (1 Bft) O-SO 0.00 h 0 W/m 18.5 C 22.3 C 5.1 km/h (1 Bft)
27.08.2009 22:00 21.3 C 82 % 1015.7 hPa 0.0 l/m 1.3 km/h (1 Bft) O-SO 0.00 h 0 W/m 18.2 C 21.3 C 2.6 km/h (1 Bft)
27.08.2009 23:00 20.5 C 86 % 1015.6 hPa 0.0 l/m 2.1 km/h (1 Bft) O-SO 0.00 h 0 W/m 18.1 C 20.5 C 3.3 km/h (1 Bft)
28.08.2009 00:00 19.5 C 88 % 1015.6 hPa 0.0 l/m 0.3 km/h (0 Bft) SO 0.00 h 0 W/m 17.5 C 19.5 C 0.5 km/h (0 Bft)
28.08.2009 01:00 18.7 C 92 % 1015.3 hPa 0.0 l/m 0.4 km/h (0 Bft) SO 0.00 h 0 W/m 17.3 C 18.7 C 0.8 km/h (0 Bft)
28.08.2009 02:00 18.0 C 93 % 1014.9 hPa 0.0 l/m 0.0 km/h (0 Bft) N 0.00 h 0 W/m 16.8 C 18.0 C 0.3 km/h (0 Bft)
28.08.2009 03:00 17.4 C 94 % 1014.5 hPa 0.0 l/m 0.2 km/h (0 Bft) SO 0.00 h 0 W/m 16.4 C 17.4 C 0.5 km/h (0 Bft)
28.08.2009 04:00 16.8 C 95 % 1014.4 hPa 0.0 l/m 0.1 km/h (0 Bft) SO 0.00 h 0 W/m 16.0 C 16.8 C 0.3 km/h (0 Bft)
28.08.2009 05:00 16.3 C 96 % 1014.5 hPa 0.0 l/m 0.0 km/h (0 Bft) N 0.00 h 0 W/m 15.6 C 16.3 C 0.0 km/h (0 Bft)
28.08.2009 06:00 16.0 C 96 % 1014.3 hPa 0.0 l/m 0.0 km/h (0 Bft) N 0.10 h 12 W/m 15.4 C 16.0 C 0.0 km/h (0 Bft)
28.08.2009 07:00 16.0 C 97 % 1014.6 hPa 0.0 l/m 0.2 km/h (0 Bft) S-SO 0.27 h 68 W/m 15.5 C 16.0 C 0.5 km/h (0 Bft)
28.08.2009 08:00 17.1 C 97 % 1015.0 hPa 0.0 l/m 0.2 km/h (0 Bft) S-SO 0.12 h 113 W/m 16.6 C 17.1 C 0.9 km/h (0 Bft)
28.08.2009 09:00 18.9 C 90 % 1015.3 hPa 0.0 l/m 0.1 km/h (0 Bft) S-SO 0.08 h 199 W/m 17.3 C 18.9 C 0.9 km/h (0 Bft)
28.08.2009 10:00 22.4 C 75 % 1015.3 hPa 0.0 l/m 3.4 km/h (1 Bft) W 0.98 h 505 W/m 17.6 C 22.4 C 6.3 km/h (2 Bft)
28.08.2009 11:00 24.1 C 64 % 1015.0 hPa 0.0 l/m 9.9 km/h (2 Bft) W 1.00 h 610 W/m 16.7 C 24.1 C 16.4 km/h (3 Bft)
28.08.2009 12:00 25.0 C 62 % 1014.4 hPa 0.0 l/m 9.0 km/h (2 Bft) W 0.78 h 608 W/m 17.1 C 25.0 C 15.1 km/h (3 Bft)
28.08.2009 13:00 24.4 C 63 % 1014.3 hPa 0.0 l/m 11.6 km/h (2 Bft) W 0.15 h 334 W/m 16.8 C 24.4 C 18.2 km/h (3 Bft)
28.08.2009 14:00 24.5 C 61 % 1014.5 hPa 0.0 l/m 15.1 km/h (3 Bft) W 0.35 h 431 W/m 16.5 C 24.5 C 23.5 km/h (4 Bft)
28.08.2009 15:00 24.2 C 60 % 1014.8 hPa 0.0 l/m 22.3 km/h (4 Bft) W 0.67 h 555 W/m 15.9 C 24.2 C 33.3 km/h (5 Bft)
28.08.2009 16:00 24.2 C 60 % 1014.8 hPa 0.0 l/m 17.6 km/h (3 Bft) W 1.00 h 556 W/m 15.9 C 24.2 C 26.8 km/h (4 Bft)
28.08.2009 17:00 23.4 C 61 % 1015.3 hPa 0.0 l/m 17.8 km/h (3 Bft) W-NW 0.82 h 400 W/m 15.4 C 23.4 C 26.6 km/h (4 Bft)
28.08.2009 18:00 22.2 C 64 % 1015.8 hPa 0.0 l/m 12.8 km/h (3 Bft) W 0.72 h 217 W/m 15.1 C 22.2 C 20.2 km/h (4 Bft)
28.08.2009 19:00 21.4 C 65 % 1015.9 hPa 0.0 l/m 8.9 km/h (2 Bft) W 0.00 h 30 W/m 14.5 C 21.4 C 13.8 km/h (3 Bft)
28.08.2009 20:00 20.5 C 68 % 1015.8 hPa 0.0 l/m 3.3 km/h (1 Bft) W 0.02 h 8 W/m 14.3 C 20.5 C 6.0 km/h (2 Bft)
28.08.2009 21:00 19.7 C 71 % 1016.5 hPa 0.0 l/m 2.2 km/h (1 Bft) W 0.00 h 0 W/m 14.3 C 19.7 C 4.9 km/h (1 Bft)
28.08.2009 22:00 19.1 C 70 % 1016.8 hPa 0.0 l/m 2.6 km/h (1 Bft) W-SW 0.00 h 0 W/m 13.5 C 19.1 C 5.4 km/h (1 Bft)
28.08.2009 23:00 18.6 C 70 % 1016.8 hPa 0.0 l/m 3.7 km/h (1 Bft) W 0.00 h 0 W/m 13.0 C 18.6 C 7.3 km/h (2 Bft)
29.08.2009 00:00 18.5 C 70 % 1017.0 hPa 0.0 l/m 3.1 km/h (1 Bft) W-SW 0.00 h 0 W/m 13.0 C 18.5 C 6.1 km/h (2 Bft)
29.08.2009 01:00 18.3 C 70 % 1016.9 hPa 0.0 l/m 1.7 km/h (1 Bft) W 0.00 h 0 W/m 12.7 C 18.3 C 4.1 km/h (1 Bft)
29.08.2009 02:00 18.2 C 72 % 1016.8 hPa 0.0 l/m 1.8 km/h (1 Bft) W 0.00 h 0 W/m 13.1 C 18.2 C 3.7 km/h (1 Bft)
29.08.2009 03:00 17.7 C 72 % 1017.0 hPa 0.0 l/m 7.7 km/h (2 Bft) W 0.00 h 0 W/m 12.5 C 17.7 C 12.8 km/h (3 Bft)
29.08.2009 04:00 17.1 C 70 % 1017.5 hPa 0.0 l/m 11.8 km/h (2 Bft) W 0.00 h 0 W/m 11.6 C 17.1 C 19.1 km/h (3 Bft)
29.08.2009 05:00 16.2 C 72 % 1018.2 hPa 0.0 l/m 12.1 km/h (2 Bft) W 0.00 h 0 W/m 11.1 C 16.2 C 20.2 km/h (4 Bft)
29.08.2009 06:00 15.3 C 74 % 1019.0 hPa 0.0 l/m 7.5 km/h (2 Bft) W-NW 0.02 h 9 W/m 10.8 C 15.3 C 12.1 km/h (2 Bft)
29.08.2009 07:00 14.5 C 77 % 1019.9 hPa 0.0 l/m 0.9 km/h (0 Bft) W-NW 0.08 h 53 W/m 10.5 C 14.5 C 2.5 km/h (1 Bft)
29.08.2009 08:00 15.7 C 73 % 1020.3 hPa 0.0 l/m 4.5 km/h (1 Bft) W 0.85 h 224 W/m 10.8 C 15.7 C 8.1 km/h (2 Bft)
29.08.2009 09:00 17.1 C 65 % 1020.4 hPa 0.0 l/m 7.1 km/h (2 Bft) W-SW 1.00 h 381 W/m 10.5 C 17.1 C 11.7 km/h (2 Bft)
29.08.2009 10:00 18.2 C 60 % 1020.5 hPa 0.0 l/m 7.3 km/h (2 Bft) W-SW 0.93 h 495 W/m 10.2 C 18.2 C 12.5 km/h (3 Bft)
29.08.2009 11:00 18.3 C 54 % 1020.7 hPa 0.0 l/m 7.5 km/h (2 Bft) W 0.55 h 445 W/m 8.9 C 18.3 C 12.6 km/h (3 Bft)
29.08.2009 12:00 18.9 C 48 % 1021.0 hPa 0.0 l/m 11.3 km/h (2 Bft) W 0.42 h 505 W/m 7.6 C 18.9 C 17.6 km/h (3 Bft)
29.08.2009 13:00 20.3 C 40 % 1020.7 hPa 0.0 l/m 11.8 km/h (2 Bft) W 1.00 h 757 W/m 6.3 C 20.3 C 18.8 km/h (3 Bft)
29.08.2009 14:00 21.2 C 36 % 1020.5 hPa 0.0 l/m 10.1 km/h (2 Bft) W 1.00 h 738 W/m 5.4 C 21.2 C 16.2 km/h (3 Bft)
29.08.2009 15:00 21.4 C 31 % 1020.3 hPa 0.0 l/m 11.5 km/h (2 Bft) W 1.00 h 663 W/m 3.6 C 21.4 C 18.6 km/h (3 Bft)
29.08.2009 16:00 22.4 C 33 % 1020.3 hPa 0.0 l/m 7.3 km/h (2 Bft) W-SW 1.00 h 543 W/m 5.1 C 22.4 C 11.7 km/h (2 Bft)
29.08.2009 17:00 22.0 C 36 % 1020.1 hPa 0.0 l/m 6.7 km/h (2 Bft) W-SW 0.97 h 380 W/m 6.2 C 22.0 C 11.2 km/h (2 Bft)
29.08.2009 18:00 21.4 C 39 % 1020.3 hPa 0.0 l/m 7.3 km/h (2 Bft) W 0.72 h 194 W/m 6.9 C 21.4 C 11.4 km/h (2 Bft)
29.08.2009 19:00 19.9 C 45 % 1020.7 hPa 0.0 l/m 5.0 km/h (1 Bft) W 0.28 h 57 W/m 7.4 C 19.9 C 8.1 km/h (2 Bft)
29.08.2009 20:00 18.2 C 50 % 1021.2 hPa 0.0 l/m 0.9 km/h (0 Bft) N-NO 0.07 h 8 W/m 7.6 C 18.2 C 3.0 km/h (1 Bft)
29.08.2009 21:00 15.8 C 63 % 1021.9 hPa 0.0 l/m 1.3 km/h (1 Bft) NO 0.00 h 0 W/m 8.6 C 15.8 C 2.5 km/h (1 Bft)
29.08.2009 22:00 12.7 C 78 % 1022.3 hPa 0.0 l/m 2.2 km/h (1 Bft) O-SO 0.00 h 0 W/m 9.0 C 12.7 C 3.6 km/h (1 Bft)
29.08.2009 23:00 11.8 C 79 % 1022.6 hPa 0.0 l/m 1.4 km/h (1 Bft) O-SO 0.00 h 0 W/m 8.4 C 11.8 C 2.6 km/h (1 Bft)
30.08.2009 00:00 11.4 C 81 % 1022.6 hPa 0.0 l/m 0.5 km/h (0 Bft) O-SO 0.00 h 0 W/m 8.2 C 11.4 C 1.3 km/h (1 Bft)
30.08.2009 01:00 10.6 C 84 % 1022.5 hPa 0.0 l/m 0.1 km/h (0 Bft) O-SO 0.00 h 0 W/m 8.0 C 10.6 C 0.5 km/h (0 Bft)
30.08.2009 02:00 9.8 C 86 % 1021.9 hPa 0.0 l/m 0.9 km/h (0 Bft) S-SW 0.00 h 0 W/m 7.5 C 9.8 C 1.7 km/h (1 Bft)
30.08.2009 03:00 9.2 C 89 % 1021.5 hPa 0.0 l/m 0.5 km/h (0 Bft) S-SO 0.00 h 0 W/m 7.5 C 9.2 C 1.1 km/h (1 Bft)
30.08.2009 04:00 8.6 C 91 % 1021.6 hPa 0.0 l/m 0.5 km/h (0 Bft) S-SO 0.00 h 0 W/m 7.3 C 8.6 C 1.2 km/h (1 Bft)
30.08.2009 05:00 8.0 C 93 % 1021.6 hPa 0.0 l/m 0.7 km/h (0 Bft) S-SO 0.00 h 0 W/m 6.9 C 8.0 C 1.4 km/h (1 Bft)
30.08.2009 06:00 7.6 C 93 % 1021.8 hPa 0.0 l/m 0.8 km/h (0 Bft) O 0.02 h 9 W/m 6.6 C 7.6 C 2.2 km/h (1 Bft)
30.08.2009 07:00 7.6 C 94 % 1022.1 hPa 0.0 l/m 0.1 km/h (0 Bft) O 0.07 h 34 W/m 6.8 C 7.6 C 0.3 km/h (0 Bft)
30.08.2009 08:00 9.6 C 95 % 1022.3 hPa 0.0 l/m 0.2 km/h (0 Bft) O 1.00 h 203 W/m 8.9 C 9.6 C 0.9 km/h (0 Bft)
30.08.2009 09:00 13.8 C 77 % 1022.0 hPa 0.0 l/m 0.5 km/h (0 Bft) N-NO 1.00 h 371 W/m 9.8 C 13.8 C 1.7 km/h (1 Bft)
30.08.2009 10:00 16.7 C 65 % 1021.8 hPa 0.0 l/m 1.6 km/h (1 Bft) NW 0.98 h 511 W/m 10.1 C 16.7 C 3.6 km/h (1 Bft)
30.08.2009 11:00 18.8 C 56 % 1021.6 hPa 0.0 l/m 2.0 km/h (1 Bft) W-NW 1.00 h 640 W/m 9.9 C 18.8 C 4.3 km/h (1 Bft)
30.08.2009 12:00 20.2 C 48 % 1021.3 hPa 0.0 l/m 3.8 km/h (1 Bft) O-SO 1.00 h 721 W/m 8.8 C 20.2 C 7.0 km/h (2 Bft)
30.08.2009 13:00 21.4 C 43 % 1020.8 hPa 0.0 l/m 3.4 km/h (1 Bft) O-SO 1.00 h 752 W/m 8.3 C 21.4 C 6.5 km/h (2 Bft)
30.08.2009 14:00 22.6 C 42 % 1020.3 hPa 0.0 l/m 2.9 km/h (1 Bft) W-NW 1.00 h 733 W/m 8.8 C 22.6 C 5.6 km/h (1 Bft)
30.08.2009 15:00 23.0 C 39 % 1019.8 hPa 0.0 l/m 2.3 km/h (1 Bft) W 1.00 h 659 W/m 8.2 C 23.0 C 4.9 km/h (1 Bft)
30.08.2009 16:00 22.8 C 38 % 1019.4 hPa 0.0 l/m 4.0 km/h (1 Bft) O-SO 1.00 h 543 W/m 7.5 C 22.8 C 6.2 km/h (2 Bft)
30.08.2009 17:00 23.0 C 37 % 1019.3 hPa 0.0 l/m 2.0 km/h (1 Bft) W-NW 1.00 h 391 W/m 7.6 C 23.0 C 4.0 km/h (1 Bft)
30.08.2009 18:00 23.1 C 41 % 1019.3 hPa 0.0 l/m 4.2 km/h (1 Bft) W-NW 0.77 h 200 W/m 9.3 C 23.1 C 6.9 km/h (2 Bft)
30.08.2009 19:00 22.0 C 44 % 1019.4 hPa 0.0 l/m 2.6 km/h (1 Bft) W-SW 0.50 h 59 W/m 9.2 C 22.0 C 4.3 km/h (1 Bft)
30.08.2009 20:00 18.9 C 57 % 1019.6 hPa 0.0 l/m 2.9 km/h (1 Bft) O-SO 0.02 h 7 W/m 9.9 C 18.9 C 4.5 km/h (1 Bft)
30.08.2009 21:00 15.6 C 72 % 1020.2 hPa 0.0 l/m 3.6 km/h (1 Bft) SO 0.00 h 0 W/m 10.5 C 15.6 C 5.2 km/h (1 Bft)
30.08.2009 22:00 14.0 C 76 % 1020.5 hPa 0.0 l/m 2.0 km/h (1 Bft) SO 0.00 h 0 W/m 9.8 C 14.0 C 3.5 km/h (1 Bft)
30.08.2009 23:00 13.0 C 79 % 1020.6 hPa 0.0 l/m 1.8 km/h (1 Bft) SO 0.00 h 0 W/m 9.5 C 13.0 C 3.0 km/h (1 Bft)
Min-Datum _ 30.08.09 29.08.09 24.08.09 - 24.08.09 - - - 29.08.09 30.08.09 24.08.09
_ Min-Zeit 06:35 15:42 19:45 - 00:00 - - - 15:17 06:35 00:05
Minimum _ 7.4 C 28 % 1007.4 hPa - 0.0 km/h (0 Bft) - - - 2.3 C 7.4 C 0.0 km/h (0 Bft)
Max-Datum _ 24.08.09 27.08.09 29.08.09 25.08.09 25.08.09 - 24.08.09 25.08.09 27.08.09 24.08.09 25.08.09
_ Max-Zeit 17:27 10:01 23:45 05:28 16:19 - 06:46 14:01 11:18 17:26 16:19
Maximum _ 31.6 C 100 % 1022.7 hPa 2.2 l/m 34.8 km/h
W (5 Bft)
- 0.02 h 949 W/m 20.1 C 31.6 C 59.1 km/h
W-NW (7 Bft)
Durchschnitt _ 19.7 C 75 % 1015.8 hPa #6.0 l/m 2.9 km/h (1 Bft) W #56:57 h 325 W/m 14.6 C 19.7 C 5.1 km/h (1 Bft)
© Kaiko 2009